sensor_id;sensor_type;location;lat;lon;timestamp;P1;durP1;ratioP1;P2;durP2;ratioP2
70052;SDS011;57398;52.032;4.376;2022-12-31T00:02:08;9.18;;;1.50;;
70052;SDS011;57398;52.032;4.376;2022-12-31T00:04:56;7.72;;;2.22;;
70052;SDS011;57398;52.032;4.376;2022-12-31T00:07:44;6.40;;;1.50;;
70052;SDS011;57398;52.032;4.376;2022-12-31T00:10:32;10.05;;;1.83;;
70052;SDS011;57398;52.032;4.376;2022-12-31T00:13:26;7.47;;;1.63;;
70052;SDS011;57398;52.032;4.376;2022-12-31T00:16:15;6.50;;;1.75;;
70052;SDS011;57398;52.032;4.376;2022-12-31T00:19:08;9.57;;;1.40;;
70052;SDS011;57398;52.032;4.376;2022-12-31T00:21:57;8.10;;;1.60;;
70052;SDS011;57398;52.032;4.376;2022-12-31T00:24:45;9.13;;;1.50;;
70052;SDS011;57398;52.032;4.376;2022-12-31T00:27:34;6.40;;;1.20;;
70052;SDS011;57398;52.032;4.376;2022-12-31T00:30:22;5.07;;;1.17;;
70052;SDS011;57398;52.032;4.376;2022-12-31T00:33:10;7.40;;;1.40;;
70052;SDS011;57398;52.032;4.376;2022-12-31T00:36:04;5.85;;;1.33;;
70052;SDS011;57398;52.032;4.376;2022-12-31T00:38:57;8.93;;;1.13;;
70052;SDS011;57398;52.032;4.376;2022-12-31T00:41:46;9.80;;;1.43;;
70052;SDS011;57398;52.032;4.376;2022-12-31T00:44:34;6.50;;;1.20;;
70052;SDS011;57398;52.032;4.376;2022-12-31T00:47:22;7.03;;;1.30;;
70052;SDS011;57398;52.032;4.376;2022-12-31T00:50:11;11.10;;;1.35;;
70052;SDS011;57398;52.032;4.376;2022-12-31T00:53:01;6.53;;;1.10;;
70052;SDS011;57398;52.032;4.376;2022-12-31T00:55:49;8.53;;;1.33;;
70052;SDS011;57398;52.032;4.376;2022-12-31T00:58:37;6.72;;;1.48;;
70052;SDS011;57398;52.032;4.376;2022-12-31T01:01:26;7.30;;;1.50;;
70052;SDS011;57398;52.032;4.376;2022-12-31T01:04:16;10.15;;;1.50;;
70052;SDS011;57398;52.032;4.376;2022-12-31T01:07:06;7.93;;;1.67;;
70052;SDS011;57398;52.032;4.376;2022-12-31T01:09:55;9.13;;;1.70;;
70052;SDS011;57398;52.032;4.376;2022-12-31T01:12:43;8.20;;;1.70;;
70052;SDS011;57398;52.032;4.376;2022-12-31T01:15:32;8.23;;;1.33;;
70052;SDS011;57398;52.032;4.376;2022-12-31T01:18:20;6.22;;;1.67;;
70052;SDS011;57398;52.032;4.376;2022-12-31T01:21:09;6.13;;;1.70;;
70052;SDS011;57398;52.032;4.376;2022-12-31T01:23:59;6.40;;;1.50;;
70052;SDS011;57398;52.032;4.376;2022-12-31T01:26:48;6.95;;;1.70;;
70052;SDS011;57398;52.032;4.376;2022-12-31T01:29:40;4.18;;;1.40;;
70052;SDS011;57398;52.032;4.376;2022-12-31T01:32:28;5.00;;;1.55;;
70052;SDS011;57398;52.032;4.376;2022-12-31T01:35:16;4.50;;;1.23;;
70052;SDS011;57398;52.032;4.376;2022-12-31T01:38:04;5.23;;;1.20;;
70052;SDS011;57398;52.032;4.376;2022-12-31T01:40:52;3.60;;;1.10;;
70052;SDS011;57398;52.032;4.376;2022-12-31T01:43:45;6.00;;;1.30;;
70052;SDS011;57398;52.032;4.376;2022-12-31T01:46:36;4.68;;;1.00;;
70052;SDS011;57398;52.032;4.376;2022-12-31T01:49:28;7.70;;;1.20;;
70052;SDS011;57398;52.032;4.376;2022-12-31T01:52:26;4.93;;;1.20;;
70052;SDS011;57398;52.032;4.376;2022-12-31T01:55:17;6.40;;;1.30;;
70052;SDS011;57398;52.032;4.376;2022-12-31T01:58:10;4.25;;;0.95;;
70052;SDS011;57398;52.032;4.376;2022-12-31T02:01:02;9.18;;;1.40;;
70052;SDS011;57398;52.032;4.376;2022-12-31T02:03:51;6.95;;;1.20;;
70052;SDS011;57398;52.032;4.376;2022-12-31T02:06:42;6.23;;;1.20;;
70052;SDS011;57398;52.032;4.376;2022-12-31T02:09:32;7.57;;;1.90;;
70052;SDS011;57398;52.032;4.376;2022-12-31T02:12:24;8.70;;;1.60;;
70052;SDS011;57398;52.032;4.376;2022-12-31T02:15:12;7.13;;;1.70;;
70052;SDS011;57398;52.032;4.376;2022-12-31T02:18:03;10.05;;;2.00;;
70052;SDS011;57398;52.032;4.376;2022-12-31T02:21:16;7.97;;;1.70;;
70052;SDS011;57398;52.032;4.376;2022-12-31T02:24:31;4.68;;;1.35;;
70052;SDS011;57398;52.032;4.376;2022-12-31T02:27:37;5.13;;;1.27;;
70052;SDS011;57398;52.032;4.376;2022-12-31T02:30:38;8.63;;;1.70;;
70052;SDS011;57398;52.032;4.376;2022-12-31T02:33:29;5.57;;;1.50;;
70052;SDS011;57398;52.032;4.376;2022-12-31T02:36:21;5.93;;;1.03;;
70052;SDS011;57398;52.032;4.376;2022-12-31T02:39:12;5.55;;;1.23;;
70052;SDS011;57398;52.032;4.376;2022-12-31T02:42:01;6.28;;;1.35;;
70052;SDS011;57398;52.032;4.376;2022-12-31T02:44:50;4.57;;;1.40;;
70052;SDS011;57398;52.032;4.376;2022-12-31T02:47:43;5.53;;;1.40;;
70052;SDS011;57398;52.032;4.376;2022-12-31T02:50:47;5.57;;;1.30;;
70052;SDS011;57398;52.032;4.376;2022-12-31T02:53:51;8.38;;;1.17;;
70052;SDS011;57398;52.032;4.376;2022-12-31T02:57:02;22.85;;;8.73;;
70052;SDS011;57398;52.032;4.376;2022-12-31T02:59:56;16.00;;;6.68;;
70052;SDS011;57398;52.032;4.376;2022-12-31T03:03:07;5.55;;;1.10;;
70052;SDS011;57398;52.032;4.376;2022-12-31T03:05:57;4.33;;;0.90;;
70052;SDS011;57398;52.032;4.376;2022-12-31T03:08:48;5.63;;;1.00;;
70052;SDS011;57398;52.032;4.376;2022-12-31T03:11:56;5.95;;;1.20;;
70052;SDS011;57398;52.032;4.376;2022-12-31T03:15:03;4.97;;;0.82;;
70052;SDS011;57398;52.032;4.376;2022-12-31T03:17:53;5.20;;;1.10;;
70052;SDS011;57398;52.032;4.376;2022-12-31T03:20:45;2.40;;;0.60;;
70052;SDS011;57398;52.032;4.376;2022-12-31T03:23:52;3.78;;;1.20;;
70052;SDS011;57398;52.032;4.376;2022-12-31T03:26:58;3.83;;;1.00;;
70052;SDS011;57398;52.032;4.376;2022-12-31T03:29:46;5.55;;;1.05;;
70052;SDS011;57398;52.032;4.376;2022-12-31T03:32:34;6.55;;;0.90;;
70052;SDS011;57398;52.032;4.376;2022-12-31T03:35:23;6.43;;;0.90;;
70052;SDS011;57398;52.032;4.376;2022-12-31T03:38:14;5.47;;;0.85;;
70052;SDS011;57398;52.032;4.376;2022-12-31T03:41:03;3.80;;;0.70;;
70052;SDS011;57398;52.032;4.376;2022-12-31T03:43:51;5.30;;;1.00;;
70052;SDS011;57398;52.032;4.376;2022-12-31T03:46:39;3.72;;;0.85;;
70052;SDS011;57398;52.032;4.376;2022-12-31T03:49:27;4.30;;;0.97;;
70052;SDS011;57398;52.032;4.376;2022-12-31T03:52:15;6.82;;;1.05;;
70052;SDS011;57398;52.032;4.376;2022-12-31T03:55:06;4.88;;;1.00;;
70052;SDS011;57398;52.032;4.376;2022-12-31T03:57:55;7.00;;;1.33;;
70052;SDS011;57398;52.032;4.376;2022-12-31T04:00:44;5.88;;;1.20;;
70052;SDS011;57398;52.032;4.376;2022-12-31T04:03:32;4.87;;;1.17;;
70052;SDS011;57398;52.032;4.376;2022-12-31T04:06:20;5.13;;;0.95;;
70052;SDS011;57398;52.032;4.376;2022-12-31T04:09:08;5.88;;;1.33;;
70052;SDS011;57398;52.032;4.376;2022-12-31T04:11:57;5.00;;;1.50;;
70052;SDS011;57398;52.032;4.376;2022-12-31T04:14:45;6.63;;;1.40;;
70052;SDS011;57398;52.032;4.376;2022-12-31T04:17:34;5.40;;;1.40;;
70052;SDS011;57398;52.032;4.376;2022-12-31T04:20:22;7.07;;;1.80;;
70052;SDS011;57398;52.032;4.376;2022-12-31T04:23:10;6.50;;;1.65;;
70052;SDS011;57398;52.032;4.376;2022-12-31T04:25:58;6.55;;;2.15;;
70052;SDS011;57398;52.032;4.376;2022-12-31T04:28:47;6.40;;;2.17;;
70052;SDS011;57398;52.032;4.376;2022-12-31T04:31:35;8.37;;;2.43;;
70052;SDS011;57398;52.032;4.376;2022-12-31T04:34:24;7.57;;;2.20;;
70052;SDS011;57398;52.032;4.376;2022-12-31T04:37:12;8.07;;;2.50;;
70052;SDS011;57398;52.032;4.376;2022-12-31T04:40:00;8.80;;;2.70;;
70052;SDS011;57398;52.032;4.376;2022-12-31T04:42:52;7.97;;;2.90;;
70052;SDS011;57398;52.032;4.376;2022-12-31T04:45:41;7.93;;;3.27;;
70052;SDS011;57398;52.032;4.376;2022-12-31T04:48:29;10.60;;;3.85;;
70052;SDS011;57398;52.032;4.376;2022-12-31T04:51:17;10.43;;;4.25;;
70052;SDS011;57398;52.032;4.376;2022-12-31T04:54:06;12.55;;;5.53;;
70052;SDS011;57398;52.032;4.376;2022-12-31T04:56:54;13.80;;;5.60;;
70052;SDS011;57398;52.032;4.376;2022-12-31T04:59:42;13.33;;;5.60;;
70052;SDS011;57398;52.032;4.376;2022-12-31T05:02:32;13.18;;;5.43;;
70052;SDS011;57398;52.032;4.376;2022-12-31T05:05:20;14.18;;;5.60;;
70052;SDS011;57398;52.032;4.376;2022-12-31T05:08:08;12.25;;;4.47;;
70052;SDS011;57398;52.032;4.376;2022-12-31T05:10:56;10.75;;;3.90;;
70052;SDS011;57398;52.032;4.376;2022-12-31T05:13:44;11.00;;;4.20;;
70052;SDS011;57398;52.032;4.376;2022-12-31T05:16:32;10.13;;;3.80;;
70052;SDS011;57398;52.032;4.376;2022-12-31T05:19:22;7.68;;;2.80;;
70052;SDS011;57398;52.032;4.376;2022-12-31T05:22:10;7.25;;;3.13;;
70052;SDS011;57398;52.032;4.376;2022-12-31T05:25:16;7.60;;;2.75;;
70052;SDS011;57398;52.032;4.376;2022-12-31T05:28:04;8.20;;;2.83;;
70052;SDS011;57398;52.032;4.376;2022-12-31T05:30:52;7.05;;;2.28;;
70052;SDS011;57398;52.032;4.376;2022-12-31T05:33:40;6.95;;;2.35;;
70052;SDS011;57398;52.032;4.376;2022-12-31T05:36:30;6.28;;;2.10;;
70052;SDS011;57398;52.032;4.376;2022-12-31T05:39:18;5.63;;;2.13;;
70052;SDS011;57398;52.032;4.376;2022-12-31T05:42:06;6.27;;;2.00;;
70052;SDS011;57398;52.032;4.376;2022-12-31T05:44:54;4.90;;;2.08;;
70052;SDS011;57398;52.032;4.376;2022-12-31T05:47:42;4.95;;;1.65;;
70052;SDS011;57398;52.032;4.376;2022-12-31T05:50:30;3.50;;;1.42;;
70052;SDS011;57398;52.032;4.376;2022-12-31T05:53:20;4.85;;;1.73;;
70052;SDS011;57398;52.032;4.376;2022-12-31T05:56:08;3.70;;;1.30;;
70052;SDS011;57398;52.032;4.376;2022-12-31T05:58:55;3.80;;;1.40;;
70052;SDS011;57398;52.032;4.376;2022-12-31T06:01:44;3.95;;;1.52;;
70052;SDS011;57398;52.032;4.376;2022-12-31T06:04:32;3.72;;;1.40;;
70052;SDS011;57398;52.032;4.376;2022-12-31T06:07:20;3.30;;;1.10;;
70052;SDS011;57398;52.032;4.376;2022-12-31T06:10:09;3.70;;;1.43;;
70052;SDS011;57398;52.032;4.376;2022-12-31T06:12:57;3.97;;;1.40;;
70052;SDS011;57398;52.032;4.376;2022-12-31T06:15:45;3.65;;;1.40;;
70052;SDS011;57398;52.032;4.376;2022-12-31T06:18:33;4.70;;;1.40;;
70052;SDS011;57398;52.032;4.376;2022-12-31T06:21:22;4.38;;;1.35;;
70052;SDS011;57398;52.032;4.376;2022-12-31T06:24:10;3.93;;;1.40;;
70052;SDS011;57398;52.032;4.376;2022-12-31T06:26:59;4.40;;;1.77;;
70052;SDS011;57398;52.032;4.376;2022-12-31T06:29:47;4.32;;;1.60;;
70052;SDS011;57398;52.032;4.376;2022-12-31T06:32:36;3.92;;;1.50;;
70052;SDS011;57398;52.032;4.376;2022-12-31T06:35:25;5.50;;;1.60;;
70052;SDS011;57398;52.032;4.376;2022-12-31T06:38:13;5.37;;;1.57;;
70052;SDS011;57398;52.032;4.376;2022-12-31T06:41:01;4.43;;;1.38;;
70052;SDS011;57398;52.032;4.376;2022-12-31T06:43:51;4.85;;;1.50;;
70052;SDS011;57398;52.032;4.376;2022-12-31T06:46:39;4.80;;;1.50;;
70052;SDS011;57398;52.032;4.376;2022-12-31T06:49:28;3.97;;;1.60;;
70052;SDS011;57398;52.032;4.376;2022-12-31T06:52:16;4.67;;;1.33;;
70052;SDS011;57398;52.032;4.376;2022-12-31T06:55:04;3.58;;;1.38;;
70052;SDS011;57398;52.032;4.376;2022-12-31T06:57:53;3.45;;;1.10;;
70052;SDS011;57398;52.032;4.376;2022-12-31T07:00:44;3.25;;;1.30;;
70052;SDS011;57398;52.032;4.376;2022-12-31T07:03:40;2.65;;;0.93;;
70052;SDS011;57398;52.032;4.376;2022-12-31T07:06:37;3.13;;;1.00;;
70052;SDS011;57398;52.032;4.376;2022-12-31T07:09:32;3.17;;;0.95;;
70052;SDS011;57398;52.032;4.376;2022-12-31T07:12:37;2.88;;;0.80;;
70052;SDS011;57398;52.032;4.376;2022-12-31T07:15:38;2.55;;;0.70;;
70052;SDS011;57398;52.032;4.376;2022-12-31T07:18:38;2.15;;;0.55;;
70052;SDS011;57398;52.032;4.376;2022-12-31T07:21:34;3.67;;;0.53;;
70052;SDS011;57398;52.032;4.376;2022-12-31T07:24:24;2.50;;;0.47;;
70052;SDS011;57398;52.032;4.376;2022-12-31T07:27:27;1.90;;;0.55;;
70052;SDS011;57398;52.032;4.376;2022-12-31T07:30:23;3.58;;;0.70;;
70052;SDS011;57398;52.032;4.376;2022-12-31T07:33:24;4.28;;;1.00;;
70052;SDS011;57398;52.032;4.376;2022-12-31T07:36:26;2.27;;;0.80;;
70052;SDS011;57398;52.032;4.376;2022-12-31T07:39:27;5.38;;;1.10;;
70052;SDS011;57398;52.032;4.376;2022-12-31T07:42:26;3.50;;;0.98;;
70052;SDS011;57398;52.032;4.376;2022-12-31T07:45:23;3.65;;;0.90;;
70052;SDS011;57398;52.032;4.376;2022-12-31T07:48:21;3.85;;;1.00;;
70052;SDS011;57398;52.032;4.376;2022-12-31T07:51:12;3.23;;;0.77;;
70052;SDS011;57398;52.032;4.376;2022-12-31T07:54:00;4.38;;;0.80;;
70052;SDS011;57398;52.032;4.376;2022-12-31T07:56:50;2.67;;;0.70;;
70052;SDS011;57398;52.032;4.376;2022-12-31T07:59:41;3.10;;;0.73;;
70052;SDS011;57398;52.032;4.376;2022-12-31T08:06:06;4.23;;;1.00;;
70052;SDS011;57398;52.032;4.376;2022-12-31T08:09:01;5.97;;;1.00;;
70052;SDS011;57398;52.032;4.376;2022-12-31T08:11:55;4.00;;;0.90;;
70052;SDS011;57398;52.032;4.376;2022-12-31T08:14:45;4.30;;;0.80;;
70052;SDS011;57398;52.032;4.376;2022-12-31T08:17:34;4.82;;;0.68;;
70052;SDS011;57398;52.032;4.376;2022-12-31T08:20:23;4.80;;;0.90;;
70052;SDS011;57398;52.032;4.376;2022-12-31T08:23:19;3.90;;;0.93;;
70052;SDS011;57398;52.032;4.376;2022-12-31T08:26:17;3.95;;;1.00;;
70052;SDS011;57398;52.032;4.376;2022-12-31T08:29:22;5.63;;;0.93;;
70052;SDS011;57398;52.032;4.376;2022-12-31T08:32:19;6.53;;;0.82;;
70052;SDS011;57398;52.032;4.376;2022-12-31T08:35:14;3.13;;;0.90;;
70052;SDS011;57398;52.032;4.376;2022-12-31T08:38:16;2.67;;;0.68;;
70052;SDS011;57398;52.032;4.376;2022-12-31T08:41:15;7.13;;;1.20;;
70052;SDS011;57398;52.032;4.376;2022-12-31T08:44:13;5.93;;;1.30;;
70052;SDS011;57398;52.032;4.376;2022-12-31T08:47:12;4.82;;;1.00;;
70052;SDS011;57398;52.032;4.376;2022-12-31T08:50:11;4.10;;;0.67;;
70052;SDS011;57398;52.032;4.376;2022-12-31T08:53:01;6.10;;;1.20;;
70052;SDS011;57398;52.032;4.376;2022-12-31T08:55:51;10.02;;;1.27;;
70052;SDS011;57398;52.032;4.376;2022-12-31T08:58:47;6.28;;;1.10;;
70052;SDS011;57398;52.032;4.376;2022-12-31T09:01:49;5.38;;;1.17;;
70052;SDS011;57398;52.032;4.376;2022-12-31T09:04:51;7.27;;;1.70;;
70052;SDS011;57398;52.032;4.376;2022-12-31T09:07:49;7.03;;;1.50;;
70052;SDS011;57398;52.032;4.376;2022-12-31T09:10:50;6.00;;;1.05;;
70052;SDS011;57398;52.032;4.376;2022-12-31T09:13:49;7.60;;;1.30;;
70052;SDS011;57398;52.032;4.376;2022-12-31T09:16:52;7.35;;;1.13;;
70052;SDS011;57398;52.032;4.376;2022-12-31T09:19:47;4.80;;;1.00;;
70052;SDS011;57398;52.032;4.376;2022-12-31T09:22:35;6.90;;;1.10;;
70052;SDS011;57398;52.032;4.376;2022-12-31T09:25:24;8.35;;;1.40;;
70052;SDS011;57398;52.032;4.376;2022-12-31T09:28:13;6.00;;;1.30;;
70052;SDS011;57398;52.032;4.376;2022-12-31T09:31:07;5.03;;;1.20;;
70052;SDS011;57398;52.032;4.376;2022-12-31T09:34:01;7.57;;;1.70;;
70052;SDS011;57398;52.032;4.376;2022-12-31T09:36:55;4.95;;;1.27;;
70052;SDS011;57398;52.032;4.376;2022-12-31T09:39:47;6.30;;;1.35;;
70052;SDS011;57398;52.032;4.376;2022-12-31T09:42:51;7.38;;;1.58;;
70052;SDS011;57398;52.032;4.376;2022-12-31T09:53:10;5.43;;;1.40;;
70052;SDS011;57398;52.032;4.376;2022-12-31T09:56:16;5.22;;;1.50;;
70052;SDS011;57398;52.032;4.376;2022-12-31T09:59:12;9.30;;;1.88;;
70052;SDS011;57398;52.032;4.376;2022-12-31T10:02:11;6.57;;;1.80;;
70052;SDS011;57398;52.032;4.376;2022-12-31T10:05:15;6.03;;;1.73;;
70052;SDS011;57398;52.032;4.376;2022-12-31T10:08:22;4.63;;;1.20;;
70052;SDS011;57398;52.032;4.376;2022-12-31T10:11:23;6.85;;;2.13;;
70052;SDS011;57398;52.032;4.376;2022-12-31T10:14:24;7.15;;;1.70;;
70052;SDS011;57398;52.032;4.376;2022-12-31T10:17:32;5.35;;;1.33;;
70052;SDS011;57398;52.032;4.376;2022-12-31T10:20:39;6.03;;;1.77;;
70052;SDS011;57398;52.032;4.376;2022-12-31T10:23:54;5.93;;;1.65;;
70052;SDS011;57398;52.032;4.376;2022-12-31T10:27:03;6.30;;;1.92;;
70052;SDS011;57398;52.032;4.376;2022-12-31T10:30:10;5.38;;;1.77;;
70052;SDS011;57398;52.032;4.376;2022-12-31T10:33:07;6.20;;;2.40;;
70052;SDS011;57398;52.032;4.376;2022-12-31T10:36:04;6.53;;;2.10;;
70052;SDS011;57398;52.032;4.376;2022-12-31T10:39:00;5.32;;;2.00;;
70052;SDS011;57398;52.032;4.376;2022-12-31T10:49:02;5.72;;;2.40;;
70052;SDS011;57398;52.032;4.376;2022-12-31T10:59:35;6.78;;;2.30;;
70052;SDS011;57398;52.032;4.376;2022-12-31T11:13:19;3.42;;;1.10;;
70052;SDS011;57398;52.032;4.376;2022-12-31T11:16:30;4.65;;;1.00;;
70052;SDS011;57398;52.032;4.376;2022-12-31T11:19:31;4.30;;;1.17;;
70052;SDS011;57398;52.032;4.376;2022-12-31T11:22:30;5.57;;;1.58;;
70052;SDS011;57398;52.032;4.376;2022-12-31T11:25:32;5.80;;;1.80;;
70052;SDS011;57398;52.032;4.376;2022-12-31T11:31:45;4.75;;;1.30;;
70052;SDS011;57398;52.032;4.376;2022-12-31T11:34:52;6.40;;;1.70;;
70052;SDS011;57398;52.032;4.376;2022-12-31T11:37:44;6.20;;;2.00;;
70052;SDS011;57398;52.032;4.376;2022-12-31T11:40:35;6.67;;;2.03;;
70052;SDS011;57398;52.032;4.376;2022-12-31T11:43:31;6.90;;;2.20;;
70052;SDS011;57398;52.032;4.376;2022-12-31T11:46:33;7.80;;;2.75;;
70052;SDS011;57398;52.032;4.376;2022-12-31T11:49:36;7.05;;;2.20;;
70052;SDS011;57398;52.032;4.376;2022-12-31T11:52:48;22.90;;;10.38;;
70052;SDS011;57398;52.032;4.376;2022-12-31T11:55:42;13.73;;;4.63;;
70052;SDS011;57398;52.032;4.376;2022-12-31T11:58:39;8.07;;;3.30;;
70052;SDS011;57398;52.032;4.376;2022-12-31T12:01:32;23.73;;;9.68;;
70052;SDS011;57398;52.032;4.376;2022-12-31T12:04:31;6.43;;;2.70;;
70052;SDS011;57398;52.032;4.376;2022-12-31T12:07:19;6.57;;;2.35;;
70052;SDS011;57398;52.032;4.376;2022-12-31T12:10:14;8.33;;;2.40;;
70052;SDS011;57398;52.032;4.376;2022-12-31T12:13:10;7.00;;;2.03;;
70052;SDS011;57398;52.032;4.376;2022-12-31T12:16:46;6.85;;;2.10;;
70052;SDS011;57398;52.032;4.376;2022-12-31T12:20:43;8.20;;;2.63;;
70052;SDS011;57398;52.032;4.376;2022-12-31T12:24:32;6.25;;;2.40;;
70052;SDS011;57398;52.032;4.376;2022-12-31T12:28:25;6.13;;;2.93;;
70052;SDS011;57398;52.032;4.376;2022-12-31T12:32:14;8.05;;;3.22;;
70052;SDS011;57398;52.032;4.376;2022-12-31T12:36:08;10.15;;;4.22;;
70052;SDS011;57398;52.032;4.376;2022-12-31T12:40:17;8.80;;;2.25;;
70052;SDS011;57398;52.032;4.376;2022-12-31T12:44:07;6.57;;;1.52;;
70052;SDS011;57398;52.032;4.376;2022-12-31T12:48:01;6.13;;;1.93;;
70052;SDS011;57398;52.032;4.376;2022-12-31T12:52:02;7.72;;;2.58;;
70052;SDS011;57398;52.032;4.376;2022-12-31T12:56:05;4.38;;;1.50;;
70052;SDS011;57398;52.032;4.376;2022-12-31T13:00:02;6.00;;;2.05;;
70052;SDS011;57398;52.032;4.376;2022-12-31T13:08:15;3.17;;;1.20;;
70052;SDS011;57398;52.032;4.376;2022-12-31T13:12:18;7.57;;;1.52;;
70052;SDS011;57398;52.032;4.376;2022-12-31T13:16:14;5.35;;;1.77;;
70052;SDS011;57398;52.032;4.376;2022-12-31T13:20:24;4.30;;;1.20;;
70052;SDS011;57398;52.032;4.376;2022-12-31T13:24:26;5.13;;;1.40;;
70052;SDS011;57398;52.032;4.376;2022-12-31T13:28:18;0.90;;;0.37;;
70052;SDS011;57398;52.032;4.376;2022-12-31T13:32:07;1.05;;;0.40;;
70052;SDS011;57398;52.032;4.376;2022-12-31T13:35:14;0.98;;;0.40;;
70052;SDS011;57398;52.032;4.376;2022-12-31T13:39:01;1.30;;;0.50;;
70052;SDS011;57398;52.032;4.376;2022-12-31T13:42:59;1.85;;;0.95;;
70052;SDS011;57398;52.032;4.376;2022-12-31T13:46:51;1.20;;;0.50;;
70052;SDS011;57398;52.032;4.376;2022-12-31T13:50:41;1.15;;;0.50;;
70052;SDS011;57398;52.032;4.376;2022-12-31T13:53:37;0.98;;;0.40;;
70052;SDS011;57398;52.032;4.376;2022-12-31T13:56:32;1.20;;;0.50;;
70052;SDS011;57398;52.032;4.376;2022-12-31T13:59:25;2.00;;;0.98;;
70052;SDS011;57398;52.032;4.376;2022-12-31T14:02:24;2.23;;;1.00;;
70052;SDS011;57398;52.032;4.376;2022-12-31T14:05:16;3.85;;;0.70;;
70052;SDS011;57398;52.032;4.376;2022-12-31T14:08:10;1.25;;;0.60;;
70052;SDS011;57398;52.032;4.376;2022-12-31T14:10:59;1.17;;;0.50;;
70052;SDS011;57398;52.032;4.376;2022-12-31T14:13:59;3.15;;;1.35;;
70052;SDS011;57398;52.032;4.376;2022-12-31T14:17:01;2.53;;;1.10;;
70052;SDS011;57398;52.032;4.376;2022-12-31T14:19:58;1.10;;;0.50;;
70052;SDS011;57398;52.032;4.376;2022-12-31T14:22:55;1.20;;;0.70;;
70052;SDS011;57398;52.032;4.376;2022-12-31T14:25:50;2.88;;;0.70;;
70052;SDS011;57398;52.032;4.376;2022-12-31T14:28:44;2.08;;;0.98;;
70052;SDS011;57398;52.032;4.376;2022-12-31T14:31:49;1.40;;;0.50;;
70052;SDS011;57398;52.032;4.376;2022-12-31T14:34:56;1.05;;;0.45;;
70052;SDS011;57398;52.032;4.376;2022-12-31T14:37:48;1.10;;;0.50;;
70052;SDS011;57398;52.032;4.376;2022-12-31T14:40:47;1.10;;;0.40;;
70052;SDS011;57398;52.032;4.376;2022-12-31T14:43:49;1.20;;;0.47;;
70052;SDS011;57398;52.032;4.376;2022-12-31T14:46:49;5.70;;;0.70;;
70052;SDS011;57398;52.032;4.376;2022-12-31T14:49:48;4.20;;;1.13;;
70052;SDS011;57398;52.032;4.376;2022-12-31T14:52:47;1.35;;;0.45;;
70052;SDS011;57398;52.032;4.376;2022-12-31T14:55:38;0.90;;;0.30;;
70052;SDS011;57398;52.032;4.376;2022-12-31T14:58:31;7.28;;;1.50;;
70052;SDS011;57398;52.032;4.376;2022-12-31T15:01:21;1.10;;;0.43;;
70052;SDS011;57398;52.032;4.376;2022-12-31T15:04:13;1.40;;;0.55;;
70052;SDS011;57398;52.032;4.376;2022-12-31T15:07:05;1.48;;;0.77;;
70052;SDS011;57398;52.032;4.376;2022-12-31T15:10:00;1.00;;;0.40;;
70052;SDS011;57398;52.032;4.376;2022-12-31T15:13:00;1.00;;;0.40;;
70052;SDS011;57398;52.032;4.376;2022-12-31T15:15:55;1.10;;;0.40;;
70052;SDS011;57398;52.032;4.376;2022-12-31T15:22:20;1.10;;;0.30;;
70052;SDS011;57398;52.032;4.376;2022-12-31T15:25:21;1.40;;;0.70;;
70052;SDS011;57398;52.032;4.376;2022-12-31T15:28:23;5.47;;;3.30;;
70052;SDS011;57398;52.032;4.376;2022-12-31T15:31:17;1.97;;;0.90;;
70052;SDS011;57398;52.032;4.376;2022-12-31T15:34:20;1.83;;;1.40;;
70052;SDS011;57398;52.032;4.376;2022-12-31T15:37:25;1.55;;;0.60;;
70052;SDS011;57398;52.032;4.376;2022-12-31T15:40:17;1.80;;;0.88;;
70052;SDS011;57398;52.032;4.376;2022-12-31T15:43:08;1.35;;;0.57;;
70052;SDS011;57398;52.032;4.376;2022-12-31T15:45:59;1.20;;;0.50;;
70052;SDS011;57398;52.032;4.376;2022-12-31T15:48:51;1.77;;;0.70;;
70052;SDS011;57398;52.032;4.376;2022-12-31T15:51:53;8.43;;;1.02;;
70052;SDS011;57398;52.032;4.376;2022-12-31T15:54:46;1.65;;;0.88;;
70052;SDS011;57398;52.032;4.376;2022-12-31T15:57:38;0.90;;;0.40;;
70052;SDS011;57398;52.032;4.376;2022-12-31T16:00:29;1.30;;;0.67;;
70052;SDS011;57398;52.032;4.376;2022-12-31T16:03:30;3.47;;;1.35;;
70052;SDS011;57398;52.032;4.376;2022-12-31T16:06:19;1.30;;;0.63;;
70052;SDS011;57398;52.032;4.376;2022-12-31T16:09:16;1.45;;;0.60;;
70052;SDS011;57398;52.032;4.376;2022-12-31T16:12:08;1.65;;;0.80;;
70052;SDS011;57398;52.032;4.376;2022-12-31T16:14:58;1.57;;;0.60;;
70052;SDS011;57398;52.032;4.376;2022-12-31T16:17:46;2.97;;;0.82;;
70052;SDS011;57398;52.032;4.376;2022-12-31T16:20:45;1.85;;;0.88;;
70052;SDS011;57398;52.032;4.376;2022-12-31T16:23:34;2.83;;;1.40;;
70052;SDS011;57398;52.032;4.376;2022-12-31T16:26:30;5.45;;;3.10;;
70052;SDS011;57398;52.032;4.376;2022-12-31T16:29:23;3.93;;;2.00;;
70052;SDS011;57398;52.032;4.376;2022-12-31T16:32:13;3.15;;;1.58;;
70052;SDS011;57398;52.032;4.376;2022-12-31T16:35:03;2.53;;;1.40;;
70052;SDS011;57398;52.032;4.376;2022-12-31T16:38:11;1.65;;;0.77;;
70052;SDS011;57398;52.032;4.376;2022-12-31T16:41:12;1.85;;;1.10;;
70052;SDS011;57398;52.032;4.376;2022-12-31T16:44:09;2.17;;;0.93;;
70052;SDS011;57398;52.032;4.376;2022-12-31T16:47:14;2.25;;;1.40;;
70052;SDS011;57398;52.032;4.376;2022-12-31T16:50:06;3.03;;;1.48;;
70052;SDS011;57398;52.032;4.376;2022-12-31T16:53:03;3.30;;;1.02;;
70052;SDS011;57398;52.032;4.376;2022-12-31T16:55:53;1.35;;;0.65;;
70052;SDS011;57398;52.032;4.376;2022-12-31T16:58:43;1.30;;;0.63;;
70052;SDS011;57398;52.032;4.376;2022-12-31T17:01:34;2.33;;;1.17;;
70052;SDS011;57398;52.032;4.376;2022-12-31T17:04:24;2.22;;;1.25;;
70052;SDS011;57398;52.032;4.376;2022-12-31T17:07:23;2.00;;;0.80;;
70052;SDS011;57398;52.032;4.376;2022-12-31T17:10:22;2.50;;;2.28;;
70052;SDS011;57398;52.032;4.376;2022-12-31T17:13:19;1.20;;;0.77;;
70052;SDS011;57398;52.032;4.376;2022-12-31T17:16:15;4.93;;;1.58;;
70052;SDS011;57398;52.032;4.376;2022-12-31T17:19:05;1.48;;;0.68;;
70052;SDS011;57398;52.032;4.376;2022-12-31T17:21:54;1.30;;;0.60;;
70052;SDS011;57398;52.032;4.376;2022-12-31T17:24:41;1.20;;;0.50;;
70052;SDS011;57398;52.032;4.376;2022-12-31T17:27:30;3.63;;;1.50;;
70052;SDS011;57398;52.032;4.376;2022-12-31T17:30:19;1.60;;;0.60;;
70052;SDS011;57398;52.032;4.376;2022-12-31T17:33:28;1.45;;;0.80;;
70052;SDS011;57398;52.032;4.376;2022-12-31T17:36:20;1.63;;;0.80;;
70052;SDS011;57398;52.032;4.376;2022-12-31T17:39:14;1.60;;;0.75;;
70052;SDS011;57398;52.032;4.376;2022-12-31T17:42:03;1.73;;;0.87;;
70052;SDS011;57398;52.032;4.376;2022-12-31T17:44:53;2.95;;;1.88;;
70052;SDS011;57398;52.032;4.376;2022-12-31T17:47:44;1.40;;;0.60;;
70052;SDS011;57398;52.032;4.376;2022-12-31T17:50:34;6.28;;;3.65;;
70052;SDS011;57398;52.032;4.376;2022-12-31T17:53:24;2.20;;;1.13;;
70052;SDS011;57398;52.032;4.376;2022-12-31T17:56:12;1.37;;;0.60;;
70052;SDS011;57398;52.032;4.376;2022-12-31T17:59:03;3.25;;;0.85;;
70052;SDS011;57398;52.032;4.376;2022-12-31T18:01:53;1.95;;;0.50;;
70052;SDS011;57398;52.032;4.376;2022-12-31T18:04:41;3.42;;;1.50;;
70052;SDS011;57398;52.032;4.376;2022-12-31T18:07:29;2.10;;;1.48;;
70052;SDS011;57398;52.032;4.376;2022-12-31T18:10:20;1.53;;;0.60;;
70052;SDS011;57398;52.032;4.376;2022-12-31T18:13:12;11.95;;;5.38;;
70052;SDS011;57398;52.032;4.376;2022-12-31T18:16:03;11.90;;;5.57;;
70052;SDS011;57398;52.032;4.376;2022-12-31T18:18:51;14.05;;;5.53;;
70052;SDS011;57398;52.032;4.376;2022-12-31T18:21:46;12.38;;;5.38;;
70052;SDS011;57398;52.032;4.376;2022-12-31T18:24:34;12.93;;;7.10;;
70052;SDS011;57398;52.032;4.376;2022-12-31T18:27:24;11.88;;;4.88;;
70052;SDS011;57398;52.032;4.376;2022-12-31T18:30:12;12.27;;;5.55;;
70052;SDS011;57398;52.032;4.376;2022-12-31T18:33:02;11.93;;;5.40;;
70052;SDS011;57398;52.032;4.376;2022-12-31T18:35:52;11.63;;;5.05;;